Time;durP1;ratioP1;P1;durP2;ratioP2;P2;SDS_P1;SDS_P2;PMS_P1;PMS_P2;Temp;Humidity;BMP_temperature;BMP_pressure;BME280_temperature;BME280_humidity;BME280_pressure;Samples;Min_cycle;Max_cycle;Signal;HPM_P1;HPM_P2
2022/05/17 00:08:13;;;;;;;0.20;0.00;;;18.50;99.90;;;;;;26564796;22;20165;-79
2022/05/17 00:18:19;;;;;;;0.20;0.00;;;19.30;99.90;;;;;;26563748;22;20189;-79
2022/05/17 00:28:25;;;;;;;0.20;0.10;;;19.60;99.90;;;;;;26563643;22;20162;-79
2022/05/17 00:38:29;;;;;;;0.20;0.10;;;19.70;99.90;;;;;;26565117;22;20181;-80
2022/05/17 00:48:37;;;;;;;0.20;0.10;;;19.70;99.90;;;;;;26535187;22;20157;-81
2022/05/17 00:58:44;;;;;;;0.20;0.00;;;19.70;99.90;;;;;;26541624;22;20189;-80
2022/05/17 01:08:50;;;;;;;0.20;0.00;;;19.30;99.90;;;;;;26544403;22;20172;-79
2022/05/17 01:18:54;;;;;;;0.20;0.10;;;19.00;99.90;;;;;;26570900;22;20206;-79
2022/05/17 01:29:00;;;;;;;0.20;0.00;;;18.70;99.90;;;;;;26543749;22;20238;-78
2022/05/17 01:39:04;;;;;;;0.20;0.00;;;18.30;99.90;;;;;;26569748;22;20188;-79
2022/05/17 01:49:10;;;;;;;0.20;0.00;;;18.20;99.90;;;;;;26570811;22;20233;-78
2022/05/17 01:59:14;;;;;;;0.20;0.00;;;17.80;99.90;;;;;;26540388;22;20188;-83
2022/05/17 02:09:21;;;;;;;0.20;0.10;;;17.70;99.90;;;;;;26570729;22;20161;-78
2022/05/17 02:19:24;;;;;;;0.20;0.10;;;17.70;99.90;;;;;;26567175;22;20208;-80
2022/05/17 02:29:31;;;;;;;0.20;0.10;;;17.40;99.90;;;;;;26539943;22;20162;-78
2022/05/17 02:39:35;;;;;;;0.20;0.07;;;17.20;99.90;;;;;;26513829;22;20196;-79
2022/05/17 02:49:43;;;;;;;0.20;0.10;;;17.10;99.90;;;;;;26566236;22;20168;-80
2022/05/17 02:59:47;;;;;;;0.20;0.10;;;17.10;99.90;;;;;;26538804;22;20196;-77
2022/05/17 03:09:52;;;;;;;0.20;0.10;;;17.20;99.90;;;;;;26565953;22;20165;-79
2022/05/17 03:19:56;;;;;;;0.20;0.10;;;17.20;99.90;;;;;;26536607;22;20201;-80
2022/05/17 03:30:01;;;;;;;0.20;0.10;;;16.90;99.90;;;;;;26564461;22;20161;-77
2022/05/17 03:40:07;;;;;;;0.20;0.10;;;16.70;99.90;;;;;;26536541;22;20177;-79
2022/05/17 03:50:14;;;;;;;0.20;0.10;;;16.70;99.90;;;;;;26537245;22;20168;-79
2022/05/17 04:00:20;;;;;;;0.30;0.30;;;16.70;99.90;;;;;;26565232;22;20189;-79
2022/05/17 04:10:26;;;;;;;0.20;0.10;;;16.70;99.90;;;;;;26537545;22;20157;-78
2022/05/17 04:20:31;;;;;;;0.20;0.10;;;16.70;99.90;;;;;;26563710;22;20189;-80
2022/05/17 04:30:36;;;;;;;0.20;0.00;;;16.40;99.90;;;;;;26563641;22;20520;-78
2022/05/17 04:40:42;;;;;;;0.20;0.10;;;16.40;99.90;;;;;;26506332;22;20185;-79
2022/05/17 04:50:48;;;;;;;0.20;0.00;;;16.40;99.90;;;;;;26562427;22;20162;-76
2022/05/17 05:00:52;;;;;;;0.20;0.10;;;16.70;99.90;;;;;;26532348;22;20179;-78
2022/05/17 05:10:57;;;;;;;0.20;0.10;;;16.80;99.90;;;;;;26531774;22;20161;-78
2022/05/17 05:21:06;;;;;;;0.20;0.10;;;16.80;99.90;;;;;;26533125;22;20201;-81
2022/05/17 05:31:13;;;;;;;0.20;0.00;;;17.00;99.90;;;;;;26559493;22;20158;-79
2022/05/17 05:41:17;;;;;;;0.20;0.10;;;17.40;99.90;;;;;;26529853;22;20182;-74
2022/05/17 05:51:22;;;;;;;0.20;0.10;;;18.00;99.90;;;;;;26531833;22;20193;-75
2022/05/17 06:01:26;;;;;;;0.20;0.00;;;18.50;99.90;;;;;;26565169;22;20196;-80
2022/05/17 06:11:31;;;;;;;0.20;0.10;;;19.20;99.90;;;;;;26531023;22;20157;-78
2022/05/17 06:21:36;;;;;;;0.20;0.10;;;19.60;99.90;;;;;;26565257;22;20193;-77
2022/05/17 06:31:42;;;;;;;0.20;0.00;;;20.00;99.90;;;;;;26561723;22;20169;-79
2022/05/17 06:41:47;;;;;;;0.20;0.00;;;20.40;99.90;;;;;;26533998;22;20200;-70
2022/05/17 06:51:53;;;;;;;0.20;0.00;;;20.60;99.90;;;;;;26534204;22;20262;-75
2022/05/17 07:01:59;;;;;;;0.20;0.00;;;20.50;99.90;;;;;;26555933;22;20196;-73
2022/05/17 11:53:48;;;;;;;0.20;0.10;;;24.10;99.90;;;;;;26361856;22;20214;-76
2022/05/17 12:03:54;;;;;;;0.32;0.32;;;24.30;99.90;;;;;;26257370;22;20185;-79
2022/05/17 12:14:09;;;;;;;0.30;0.30;;;24.00;99.90;;;;;;26280243;22;20240;-74
2022/05/17 12:24:25;;;;;;;0.20;0.15;;;24.60;99.90;;;;;;26280901;22;20194;-77
2022/05/17 12:34:30;;;;;;;0.20;0.10;;;24.90;99.90;;;;;;26248352;22;20155;-80
2022/05/17 12:44:39;;;;;;;0.20;0.00;;;25.20;99.90;;;;;;26256126;22;20183;-85
2022/05/17 12:54:49;;;;;;;0.20;0.20;;;26.30;99.90;;;;;;26257511;22;20201;-80
2022/05/17 13:04:53;;;;;;;0.40;0.28;;;26.10;99.90;;;;;;26261642;22;20178;-79
2022/05/17 13:14:58;;;;;;;0.20;0.03;;;26.00;99.90;;;;;;26291371;22;20174;-80
2022/05/17 13:25:06;;;;;;;0.20;0.00;;;25.60;99.90;;;;;;26260026;22;20187;-78
2022/05/17 13:35:19;;;;;;;0.60;0.60;;;27.00;99.90;;;;;;26289023;22;20170;-83
2022/05/17 13:45:30;;;;;;;0.70;0.70;;;26.10;99.90;;;;;;26289253;22;20190;-80
2022/05/17 13:55:40;;;;;;;0.20;0.00;;;26.00;99.90;;;;;;26287877;22;20205;-78
2022/05/17 14:05:58;;;;;;;0.20;0.00;;;26.20;99.90;;;;;;26286708;22;20194;-78
2022/05/17 14:16:08;;;;;;;0.20;0.00;;;27.60;99.90;;;;;;26288528;22;20167;-81
2022/05/17 14:26:13;;;;;;;0.52;0.52;;;27.90;99.90;;;;;;26287440;22;20186;-80
2022/05/17 14:36:21;;;;;;;0.20;0.00;;;28.90;99.90;;;;;;26230587;22;20352;-80
2022/05/17 14:46:25;;;;;;;0.40;0.40;;;29.00;99.90;;;;;;26284942;22;20187;-80
2022/05/17 14:56:30;;;;;;;0.20;0.05;;;29.30;99.90;;;;;;26282084;22;20705;-78
2022/05/17 15:06:48;;;;;;;0.20;0.15;;;29.20;99.90;;;;;;26226867;22;20182;-80
2022/05/17 15:16:57;;;;;;;0.20;0.10;;;29.20;99.90;;;;;;26281068;22;20167;-79
2022/05/17 15:27:01;;;;;;;0.20;0.10;;;29.50;99.90;;;;;;26254565;22;20250;-83
2022/05/17 15:37:07;;;;;;;0.20;0.10;;;28.80;99.90;;;;;;26257149;22;20170;-81
2022/05/17 15:57:37;;;;;;;0.20;0.00;;;28.80;99.90;;;;;;26372616;22;20201;-83
2022/05/17 16:18:07;;;;;;;0.20;0.00;;;25.60;99.90;;;;;;26419551;22;20970;-83
2022/05/17 16:28:15;;;;;;;0.20;0.15;;;24.70;99.90;;;;;;26397136;22;20216;-83
2022/05/17 16:38:27;;;;;;;0.20;0.00;;;24.60;99.90;;;;;;26392728;22;20189;-82
2022/05/17 16:48:32;;;;;;;0.20;0.00;;;24.50;99.90;;;;;;26424280;22;20192;-81
2022/05/17 16:58:37;;;;;;;0.20;0.00;;;24.90;99.90;;;;;;26421926;22;20206;-75
2022/05/17 17:08:41;;;;;;;0.20;0.13;;;25.20;99.90;;;;;;26425927;22;20185;-82
2022/05/17 17:18:46;;;;;;;0.20;0.00;;;26.50;99.90;;;;;;26394842;22;20173;-79
2022/05/17 17:28:53;;;;;;;0.20;0.00;;;26.20;99.90;;;;;;26423554;22;20194;-72
2022/05/17 17:38:58;;;;;;;0.20;0.00;;;24.90;99.90;;;;;;26424258;22;20230;-77
2022/05/17 17:49:02;;;;;;;0.20;0.00;;;24.10;99.90;;;;;;26426833;22;20193;-78
2022/05/17 17:59:13;;;;;;;0.20;0.00;;;24.10;99.90;;;;;;26427759;22;20194;-78
2022/05/17 18:09:16;;;;;;;0.20;0.00;;;23.20;99.90;;;;;;26426683;22;20197;-79
2022/05/17 18:19:22;;;;;;;0.30;0.30;;;23.00;99.90;;;;;;26428110;22;20173;-81
2022/05/17 18:29:30;;;;;;;0.20;0.00;;;22.90;99.90;;;;;;26404167;22;20982;-80
2022/05/17 18:39:36;;;;;;;0.20;0.10;;;22.90;99.90;;;;;;26402607;22;20154;-83
2022/05/17 18:49:43;;;;;;;0.20;0.10;;;22.60;99.90;;;;;;26428654;22;20192;-83
2022/05/17 18:59:48;;;;;;;0.20;0.00;;;22.20;99.90;;;;;;26398771;22;20182;-81
2022/05/17 19:20:15;;;;;;;0.20;0.00;;;21.90;99.90;;;;;;26428895;22;20170;-81
2022/05/17 19:30:19;;;;;;;0.20;0.00;;;21.60;99.90;;;;;;26426048;22;20147;-80
2022/05/17 19:40:26;;;;;;;0.20;0.10;;;21.40;99.90;;;;;;26397337;22;20237;-80
2022/05/17 19:50:32;;;;;;;0.20;0.00;;;21.40;99.90;;;;;;26400608;22;20155;-77
2022/05/17 20:00:41;;;;;;;0.20;0.10;;;21.40;99.90;;;;;;26400048;22;20205;-79
2022/05/17 20:10:51;;;;;;;0.20;0.00;;;21.10;99.90;;;;;;26425769;22;20168;-77
2022/05/17 20:20:57;;;;;;;0.20;0.00;;;21.00;99.90;;;;;;26425919;22;20189;-79
2022/05/17 20:31:04;;;;;;;0.20;0.00;;;21.00;99.90;;;;;;26425750;22;20166;-78
2022/05/17 20:41:13;;;;;;;0.20;0.00;;;21.00;99.90;;;;;;26427156;22;20197;-77
2022/05/17 20:51:17;;;;;;;0.20;0.00;;;20.70;99.90;;;;;;26425195;22;20255;-79
2022/05/17 21:01:22;;;;;;;0.20;0.10;;;20.40;99.90;;;;;;26426044;22;20171;-78
2022/05/17 21:11:27;;;;;;;0.20;0.00;;;20.30;99.90;;;;;;26401893;22;20171;-78
2022/05/17 21:21:32;;;;;;;0.20;0.00;;;20.50;99.90;;;;;;26431942;22;20186;-78
2022/05/17 21:31:36;;;;;;;0.20;0.10;;;20.50;99.90;;;;;;26409193;22;20158;-77
2022/05/17 21:41:41;;;;;;;0.20;0.10;;;20.30;99.90;;;;;;26435580;22;20222;-78
2022/05/17 21:51:45;;;;;;;0.20;0.10;;;20.10;99.90;;;;;;26411551;22;20231;-78
2022/05/17 22:01:53;;;;;;;0.20;0.00;;;20.00;99.90;;;;;;26411096;22;20190;-80
2022/05/17 22:22:20;;;;;;;0.20;0.00;;;19.90;99.90;;;;;;26437753;22;20185;-81
2022/05/17 22:32:24;;;;;;;0.20;0.00;;;19.70;99.90;;;;;;26408518;22;20169;-80
2022/05/17 22:42:29;;;;;;;0.20;0.00;;;19.50;99.90;;;;;;26434599;22;20190;-80
2022/05/17 22:52:33;;;;;;;0.20;0.10;;;19.50;99.90;;;;;;26408114;22;20202;-79
2022/05/17 23:02:38;;;;;;;0.20;0.10;;;19.50;99.90;;;;;;26435677;22;20197;-78
2022/05/17 23:12:42;;;;;;;0.20;0.10;;;19.40;99.90;;;;;;26435375;22;20177;-79
2022/05/17 23:22:48;;;;;;;0.20;0.10;;;19.20;99.90;;;;;;26405156;22;20182;-79
2022/05/17 23:32:52;;;;;;;0.20;0.10;;;19.30;99.90;;;;;;26435020;22;20162;-78
2022/05/17 23:42:58;;;;;;;0.20;0.10;;;19.10;99.90;;;;;;26432665;22;20185;-77
2022/05/17 23:53:03;;;;;;;0.20;0.00;;;19.00;99.90;;;;;;26404893;22;20208;-77
